Terminal Aerodrome Forecast
Issued by NWS

Home | Current Version | Previous Version | Text Only | Print | Product List | Glossary On
Versions: 1 2 3 4 5 6 7 8 9 10 11 12 13 14 15 16 17 18 19 20 21
778
FTUS43 KAPX 290526
TAFTVC
TAF
KTVC 290526Z 2906/3006 VRB03KT P6SM FEW018 OVC110 WS020/22045KT
     FM290800 22012KT 5SM -SHRA OVC025
     FM291000 22012KT P6SM VCSH OVC015
     FM291200 23012KT P6SM BKN015
     FM291400 23013KT P6SM BKN020
     FM292200 25012KT P6SM BKN045=

USA.gov is the U.S. government's official web portal to all federal, state and local government web resources and services.